Time;durP1;ratioP1;P1;durP2;ratioP2;P2;SDS_P1;SDS_P2;PMS_P1;PMS_P2;Temp;Humidity;BMP_temperature;BMP_pressure;BME280_temperature;BME280_humidity;BME280_pressure;Samples;Min_cycle;Max_cycle;Signal;HPM_P1;HPM_P2
2024/04/14 00:04:36;;;;;;;3.83;1.90;;;20.00;63.40;;;;;;10888714;26;20256;-62
2024/04/14 00:09:41;;;;;;;2.15;1.63;;;19.90;62.70;;;;;;10890793;26;20247;-65
2024/04/14 00:14:50;;;;;;;4.38;1.70;;;19.80;62.20;;;;;;10881686;26;20315;-61
2024/04/14 00:19:55;;;;;;;2.58;1.70;;;19.70;62.10;;;;;;10881907;26;20307;-63
2024/04/14 00:25:01;;;;;;;2.40;1.60;;;19.60;60.20;;;;;;10885970;26;20426;-62
2024/04/14 00:30:10;;;;;;;3.60;1.52;;;19.50;59.20;;;;;;10885351;26;20247;-65
2024/04/14 00:35:16;;;;;;;5.68;1.55;;;19.40;58.50;;;;;;10887909;26;20252;-61
2024/04/14 00:40:22;;;;;;;2.30;1.30;;;19.20;57.70;;;;;;10884956;26;20350;-65
2024/04/14 00:45:30;;;;;;;1.92;1.42;;;19.20;58.30;;;;;;10951981;21;20359;-66
2024/04/14 00:50:36;;;;;;;1.92;1.20;;;19.10;56.70;;;;;;10991348;26;20245;-66
2024/04/14 00:55:43;;;;;;;3.45;1.42;;;18.90;56.70;;;;;;10902209;26;20363;-66
2024/04/14 01:00:51;;;;;;;2.30;1.50;;;18.80;56.70;;;;;;10928984;26;20242;-66
2024/04/14 01:05:57;;;;;;;3.75;1.60;;;18.70;56.70;;;;;;10991388;26;20246;-65
2024/04/14 01:11:02;;;;;;;4.30;1.55;;;18.60;57.00;;;;;;10991283;26;20242;-65
2024/04/14 01:16:10;;;;;;;6.32;1.85;;;18.50;56.80;;;;;;10993636;26;20250;-66
2024/04/14 01:21:17;;;;;;;2.42;1.58;;;18.40;57.10;;;;;;10995986;26;20950;-66
2024/04/14 01:26:25;;;;;;;4.00;1.63;;;18.30;57.30;;;;;;10990323;26;20246;-65
2024/04/14 01:31:30;;;;;;;3.75;1.85;;;18.20;57.80;;;;;;10991034;26;20327;-66
2024/04/14 01:36:35;;;;;;;4.18;2.10;;;18.20;57.80;;;;;;10988679;26;20367;-67
2024/04/14 01:41:44;;;;;;;4.05;1.73;;;18.10;57.60;;;;;;10988499;26;20258;-65
2024/04/14 01:46:49;;;;;;;3.80;1.80;;;18.00;57.90;;;;;;10990318;26;20246;-65
2024/04/14 01:51:54;;;;;;;4.40;1.60;;;17.90;58.30;;;;;;10987546;26;20348;-66
2024/04/14 01:57:02;;;;;;;6.05;2.03;;;17.90;58.10;;;;;;10987861;26;20254;-65
2024/04/14 02:02:08;;;;;;;2.42;1.80;;;17.80;58.20;;;;;;10984132;26;20603;-65
2024/04/14 02:07:13;;;;;;;4.50;1.90;;;17.70;58.20;;;;;;10988015;26;20254;-65
2024/04/14 02:12:21;;;;;;;5.40;2.05;;;17.60;58.60;;;;;;10986666;26;20351;-66
2024/04/14 02:17:27;;;;;;;4.13;1.83;;;17.60;58.70;;;;;;10988494;26;20443;-65
2024/04/14 02:22:32;;;;;;;4.85;2.00;;;17.60;58.70;;;;;;10984957;26;20669;-65
2024/04/14 02:27:40;;;;;;;5.82;1.80;;;17.60;58.90;;;;;;10988622;26;20249;-66
2024/04/14 02:32:46;;;;;;;3.30;2.03;;;17.50;59.00;;;;;;10984991;26;20266;-65
2024/04/14 02:37:51;;;;;;;6.65;1.85;;;17.40;59.30;;;;;;10984726;26;20352;-65
2024/04/14 02:42:59;;;;;;;5.55;2.45;;;17.30;59.40;;;;;;10990367;26;20246;-65
2024/04/14 02:48:05;;;;;;;3.53;2.20;;;17.30;59.60;;;;;;10993153;26;20250;-65
2024/04/14 02:53:12;;;;;;;9.73;2.28;;;17.30;59.70;;;;;;10991624;26;20250;-65
2024/04/14 02:58:20;;;;;;;5.82;2.75;;;17.20;59.80;;;;;;10991424;26;20246;-65
2024/04/14 03:03:26;;;;;;;5.70;2.22;;;17.20;60.00;;;;;;10989837;26;22322;-66
2024/04/14 03:08:31;;;;;;;5.72;2.30;;;17.10;60.00;;;;;;10984707;26;20250;-66
2024/04/14 03:13:39;;;;;;;5.68;2.38;;;17.10;60.20;;;;;;10989914;26;23526;-65
2024/04/14 03:18:44;;;;;;;9.93;2.63;;;17.10;60.40;;;;;;10983198;26;20245;-65
2024/04/14 03:23:50;;;;;;;6.00;2.50;;;17.00;60.80;;;;;;10987034;26;21671;-66
2024/04/14 03:28:58;;;;;;;7.65;2.58;;;16.90;61.00;;;;;;10987692;26;20335;-66
2024/04/14 03:34:03;;;;;;;9.85;2.90;;;16.90;61.20;;;;;;10988817;26;20366;-69
2024/04/14 03:39:09;;;;;;;7.28;2.88;;;16.80;61.50;;;;;;10990209;26;20242;-71
2024/04/14 03:44:17;;;;;;;8.82;3.20;;;16.70;61.90;;;;;;10985536;26;20250;-72
2024/04/14 03:49:22;;;;;;;7.07;2.60;;;16.60;62.00;;;;;;10983906;26;20246;-73
2024/04/14 03:54:27;;;;;;;9.15;3.40;;;16.50;63.00;;;;;;10986927;26;20250;-70
2024/04/14 03:59:35;;;;;;;7.88;2.88;;;16.50;62.30;;;;;;10984627;26;20241;-75
2024/04/14 04:04:41;;;;;;;13.23;4.38;;;16.50;62.20;;;;;;10988277;26;20250;-74
2024/04/14 04:09:46;;;;;;;10.95;3.85;;;16.50;62.40;;;;;;10988067;26;20319;-73
2024/04/14 04:14:56;;;;;;;7.80;3.20;;;16.50;62.90;;;;;;10989953;26;20246;-73
2024/04/14 04:20:01;;;;;;;8.82;3.78;;;16.50;62.90;;;;;;10994161;26;20318;-71
2024/04/14 04:25:07;;;;;;;8.60;3.30;;;16.50;63.40;;;;;;10996756;26;20389;-74
2024/04/14 04:30:16;;;;;;;9.27;3.97;;;16.40;63.40;;;;;;10995503;26;20250;-74
2024/04/14 04:35:22;;;;;;;8.15;3.97;;;16.30;63.40;;;;;;10998329;26;20250;-75
2024/04/14 04:40:27;;;;;;;10.13;3.70;;;16.40;63.20;;;;;;11003971;26;20246;-72
2024/04/14 04:45:35;;;;;;;9.27;3.72;;;16.30;63.40;;;;;;11004292;26;20250;-69
2024/04/14 04:50:41;;;;;;;9.02;3.92;;;16.30;63.90;;;;;;11006201;26;20247;-69
2024/04/14 04:55:47;;;;;;;8.98;3.67;;;16.20;64.50;;;;;;10998961;26;20359;-75
2024/04/14 05:00:58;;;;;;;8.13;3.85;;;16.20;64.40;;;;;;10995351;26;20379;-74
2024/04/14 05:06:05;;;;;;;9.73;4.35;;;16.20;64.80;;;;;;11018598;26;20320;-67
2024/04/14 05:11:11;;;;;;;9.55;4.13;;;16.10;65.20;;;;;;10998953;26;20884;-67
2024/04/14 05:16:19;;;;;;;11.15;4.25;;;16.00;64.80;;;;;;10999034;26;20372;-69
2024/04/14 05:21:24;;;;;;;11.30;3.83;;;16.00;65.50;;;;;;11014228;26;20352;-70
2024/04/14 05:26:30;;;;;;;10.18;4.00;;;16.10;65.20;;;;;;11062577;26;20258;-70
2024/04/14 05:31:38;;;;;;;11.57;4.28;;;16.00;65.20;;;;;;11058065;26;20246;-70
2024/04/14 05:36:43;;;;;;;9.23;4.07;;;16.00;65.90;;;;;;11081237;26;20255;-72
2024/04/14 05:41:49;;;;;;;12.73;4.18;;;15.90;65.90;;;;;;11151873;26;20230;-66
2024/04/14 05:46:57;;;;;;;7.72;3.72;;;15.90;65.70;;;;;;11161614;26;20273;-66
2024/04/14 05:52:02;;;;;;;9.48;3.47;;;16.00;66.10;;;;;;11157828;26;20258;-68
2024/04/14 05:57:08;;;;;;;11.20;3.92;;;15.90;66.30;;;;;;11158035;26;20357;-66
2024/04/14 06:02:18;;;;;;;9.20;4.22;;;15.80;66.30;;;;;;11141685;26;20266;-66
2024/04/14 06:07:24;;;;;;;10.80;3.75;;;15.90;65.90;;;;;;11152747;26;20352;-68
2024/04/14 06:12:29;;;;;;;10.23;3.88;;;15.90;66.30;;;;;;11153095;26;20349;-68
2024/04/14 06:17:37;;;;;;;9.68;3.85;;;15.90;66.30;;;;;;11145390;26;20257;-67
2024/04/14 06:22:42;;;;;;;8.85;3.55;;;15.90;66.20;;;;;;11060533;26;20308;-69
2024/04/14 06:27:48;;;;;;;11.40;4.25;;;15.90;65.80;;;;;;11046936;26;21102;-71
2024/04/14 06:32:56;;;;;;;7.85;3.40;;;15.90;66.20;;;;;;11051802;26;20250;-69
2024/04/14 06:38:01;;;;;;;10.05;4.03;;;15.80;66.30;;;;;;11055633;26;20931;-68
2024/04/14 06:43:07;;;;;;;11.35;3.78;;;15.80;66.50;;;;;;11079349;26;20834;-70
2024/04/14 06:48:16;;;;;;;11.38;4.03;;;15.80;66.60;;;;;;11068329;26;20242;-69
2024/04/14 06:53:22;;;;;;;9.50;3.70;;;15.70;66.10;;;;;;11060177;26;20618;-67
2024/04/14 06:58:28;;;;;;;7.35;3.47;;;15.80;65.90;;;;;;11110108;26;20238;-66
2024/04/14 07:03:36;;;;;;;9.07;3.95;;;15.80;66.50;;;;;;11036515;26;20238;-70
2024/04/14 07:08:41;;;;;;;7.57;3.50;;;15.90;66.50;;;;;;11011738;26;20258;-68
2024/04/14 07:13:47;;;;;;;10.30;3.88;;;15.90;66.60;;;;;;11029267;26;20801;-68
2024/04/14 07:18:55;;;;;;;7.82;3.08;;;16.00;66.30;;;;;;11069264;26;20841;-67
2024/04/14 07:24:00;;;;;;;8.23;4.07;;;16.00;66.00;;;;;;11059593;26;20238;-69
2024/04/14 07:29:05;;;;;;;6.80;3.85;;;16.00;66.30;;;;;;11043596;26;20826;-70
2024/04/14 07:34:13;;;;;;;9.43;3.75;;;16.00;66.10;;;;;;11033763;26;20242;-70
2024/04/14 07:39:19;;;;;;;9.65;3.90;;;16.10;65.90;;;;;;11038163;26;20327;-70
2024/04/14 07:44:24;;;;;;;13.52;4.45;;;16.20;65.90;;;;;;11027998;26;20241;-70
2024/04/14 07:49:32;;;;;;;8.98;4.05;;;16.20;66.00;;;;;;11096457;26;20340;-66
2024/04/14 07:54:38;;;;;;;10.55;4.50;;;16.20;65.90;;;;;;11088060;26;20339;-68
2024/04/14 07:59:43;;;;;;;10.95;3.63;;;16.20;66.10;;;;;;11033668;26;20383;-69
2024/04/14 08:04:53;;;;;;;14.63;4.22;;;16.20;65.60;;;;;;11033012;26;20623;-71
2024/04/14 08:09:59;;;;;;;8.43;3.33;;;16.40;65.10;;;;;;11028010;26;21127;-71
2024/04/14 08:15:05;;;;;;;7.13;3.20;;;16.40;64.70;;;;;;11064777;26;20242;-67
2024/04/14 08:20:13;;;;;;;8.20;2.83;;;16.50;64.70;;;;;;11095340;26;20233;-66
2024/04/14 08:25:19;;;;;;;9.20;3.10;;;16.70;64.50;;;;;;11060723;26;20348;-68
2024/04/14 08:30:24;;;;;;;8.80;2.65;;;16.70;64.10;;;;;;11070302;26;20230;-69
2024/04/14 08:35:32;;;;;;;9.38;3.45;;;16.70;64.10;;;;;;11111906;26;20234;-67
2024/04/14 08:40:38;;;;;;;6.70;2.92;;;16.80;64.20;;;;;;11153983;26;20261;-68
2024/04/14 08:45:44;;;;;;;8.10;2.95;;;16.80;64.00;;;;;;11159525;26;20332;-67
2024/04/14 08:50:53;;;;;;;7.47;2.90;;;16.90;64.00;;;;;;11158234;26;20347;-67
2024/04/14 08:56:00;;;;;;;8.23;2.25;;;17.00;63.70;;;;;;11061329;26;20238;-71
2024/04/14 09:01:06;;;;;;;6.25;3.10;;;17.00;61.80;;;;;;11059910;26;20233;-69
2024/04/14 09:06:15;;;;;;;9.93;3.35;;;16.80;61.50;;;;;;11120233;26;20233;-67
2024/04/14 09:11:21;;;;;;;11.68;3.10;;;16.70;61.80;;;;;;11088529;26;20237;-67
2024/04/14 09:16:27;;;;;;;6.85;2.85;;;16.50;61.80;;;;;;11051304;26;21102;-69
2024/04/14 09:21:35;;;;;;;6.55;2.83;;;16.50;62.10;;;;;;11059245;26;20330;-65
2024/04/14 09:26:43;;;;;;;10.50;3.15;;;16.60;62.10;;;;;;10998073;26;20930;-65
2024/04/14 09:31:49;;;;;;;8.27;3.13;;;16.80;62.50;;;;;;10996773;26;20231;-65
2024/04/14 09:36:57;;;;;;;5.97;2.78;;;17.00;62.20;;;;;;11000949;26;20343;-62
2024/04/14 09:42:03;;;;;;;7.45;3.28;;;17.00;61.80;;;;;;11001276;26;20344;-63
2024/04/14 09:47:11;;;;;;;9.00;3.88;;;16.90;61.40;;;;;;11001160;26;22053;-63
2024/04/14 09:52:21;;;;;;;9.23;3.67;;;17.00;61.80;;;;;;10920325;26;20339;-63
2024/04/14 09:57:27;;;;;;;6.75;3.35;;;17.10;61.90;;;;;;11006389;26;20234;-64
2024/04/14 10:02:37;;;;;;;10.25;3.58;;;17.30;61.80;;;;;;11001208;26;21447;-63
2024/04/14 10:07:46;;;;;;;9.30;3.45;;;17.30;61.00;;;;;;11011510;26;20242;-63
2024/04/14 10:12:54;;;;;;;7.72;4.40;;;17.30;61.50;;;;;;11006435;26;20238;-63
2024/04/14 10:18:12;;;;;;;7.32;4.85;;;17.40;60.80;;;;;;11004493;26;20608;-63
2024/04/14 10:23:23;;;;;;;8.02;6.05;;;17.30;60.00;;;;;;11005386;26;20245;-63
2024/04/14 10:28:29;;;;;;;10.10;4.65;;;17.40;60.40;;;;;;11007225;26;20250;-63
2024/04/14 10:33:34;;;;;;;6.25;3.40;;;17.60;60.30;;;;;;11002330;26;20322;-64
2024/04/14 10:38:47;;;;;;;5.82;2.10;;;17.80;59.60;;;;;;11005422;26;20458;-63
2024/04/14 10:43:52;;;;;;;7.22;1.67;;;17.90;58.80;;;;;;11003236;26;20824;-63
2024/04/14 10:48:58;;;;;;;5.38;1.75;;;17.90;58.10;;;;;;11003075;26;20327;-63
2024/04/14 10:54:06;;;;;;;6.03;1.95;;;18.00;58.30;;;;;;11004857;26;20238;-64
2024/04/14 10:59:12;;;;;;;5.13;2.05;;;18.10;58.80;;;;;;11008320;26;20233;-63
2024/04/14 11:04:18;;;;;;;6.57;2.15;;;18.40;58.70;;;;;;11007000;26;20352;-61
2024/04/14 11:09:27;;;;;;;6.75;1.45;;;18.50;58.40;;;;;;11006122;26;20230;-65
2024/04/14 11:14:33;;;;;;;5.45;1.55;;;18.60;57.80;;;;;;11004059;26;21960;-62
2024/04/14 11:19:39;;;;;;;5.60;1.45;;;18.50;58.00;;;;;;11007983;26;20242;-64
2024/04/14 11:24:51;;;;;;;3.58;1.38;;;18.40;56.70;;;;;;11004116;26;20329;-62
2024/04/14 11:29:57;;;;;;;5.53;1.63;;;18.40;56.40;;;;;;10997250;26;20238;-62
2024/04/14 11:35:05;;;;;;;5.57;1.50;;;18.70;56.90;;;;;;11005560;26;20246;-62
2024/04/14 11:40:17;;;;;;;6.07;1.90;;;19.00;56.50;;;;;;10997338;26;20242;-61
2024/04/14 11:45:22;;;;;;;4.40;1.25;;;18.90;54.80;;;;;;10997515;26;20316;-64
2024/04/14 11:50:28;;;;;;;4.55;1.75;;;18.80;55.30;;;;;;10998485;26;21186;-64
2024/04/14 11:55:36;;;;;;;8.50;4.30;;;18.90;54.30;;;;;;11004353;26;20238;-64
2024/04/14 12:00:41;;;;;;;6.65;1.60;;;18.90;54.20;;;;;;10998193;26;20316;-65
2024/04/14 12:05:47;;;;;;;6.40;1.75;;;19.10;54.80;;;;;;11009261;26;20502;-63
2024/04/14 12:10:55;;;;;;;4.85;1.50;;;19.30;54.50;;;;;;11004730;26;20234;-64
2024/04/14 12:16:00;;;;;;;5.57;1.70;;;19.30;54.60;;;;;;11003055;26;20359;-64
2024/04/14 12:21:07;;;;;;;7.15;1.88;;;19.20;53.70;;;;;;11002269;26;20323;-62
2024/04/14 12:26:15;;;;;;;4.85;1.67;;;18.90;53.90;;;;;;11008449;26;20242;-63
2024/04/14 12:31:21;;;;;;;5.05;1.70;;;18.90;54.30;;;;;;11009748;26;20342;-62
2024/04/14 12:36:26;;;;;;;3.97;1.50;;;19.00;54.50;;;;;;11005960;26;20254;-65
2024/04/14 12:41:34;;;;;;;4.90;1.80;;;19.50;55.00;;;;;;11010992;26;20236;-62
2024/04/14 12:46:40;;;;;;;4.85;1.88;;;20.00;53.80;;;;;;11010184;26;20825;-67
2024/04/14 12:51:45;;;;;;;8.20;1.70;;;19.90;52.20;;;;;;11008852;26;20234;-65
2024/04/14 12:56:54;;;;;;;5.90;1.67;;;19.80;52.60;;;;;;11009438;26;20238;-66
2024/04/14 13:01:59;;;;;;;3.00;1.40;;;19.70;52.90;;;;;;11008322;26;20891;-66
2024/04/14 13:07:04;;;;;;;3.55;1.48;;;19.80;52.10;;;;;;11008247;26;20237;-68
2024/04/14 13:12:13;;;;;;;5.88;1.55;;;20.10;52.60;;;;;;11006227;26;20237;-66
2024/04/14 13:17:18;;;;;;;5.35;1.88;;;20.70;53.60;;;;;;11006151;26;20339;-67
2024/04/14 13:22:23;;;;;;;5.30;1.98;;;21.10;52.30;;;;;;11007522;26;20857;-67
2024/04/14 13:27:31;;;;;;;3.35;1.65;;;21.20;50.70;;;;;;11008831;26;20234;-66
2024/04/14 13:32:37;;;;;;;6.50;2.00;;;21.50;51.30;;;;;;11005973;26;20324;-66
2024/04/14 13:37:43;;;;;;;5.70;2.00;;;21.90;51.60;;;;;;11008494;26;20238;-68
2024/04/14 13:42:51;;;;;;;3.90;1.80;;;22.40;51.60;;;;;;11007136;26;20733;-67
2024/04/14 13:47:56;;;;;;;4.95;1.60;;;22.60;50.70;;;;;;11009545;26;20901;-66
2024/04/14 13:53:03;;;;;;;4.63;1.70;;;22.80;51.20;;;;;;11008216;26;20238;-67
2024/04/14 13:58:11;;;;;;;5.93;1.75;;;23.30;50.80;;;;;;11007217;26;20368;-67
2024/04/14 14:03:16;;;;;;;6.00;2.10;;;23.40;51.10;;;;;;11006530;26;20234;-67
2024/04/14 14:08:22;;;;;;;4.78;1.75;;;23.00;50.00;;;;;;11007074;26;20344;-66
2024/04/14 14:13:31;;;;;;;4.55;1.52;;;23.30;51.00;;;;;;11006233;26;20242;-65
2024/04/14 14:18:36;;;;;;;5.22;1.42;;;23.50;50.00;;;;;;11007434;26;20316;-67
2024/04/14 14:23:43;;;;;;;5.85;2.13;;;23.20;49.90;;;;;;11008192;26;20241;-65
2024/04/14 14:28:51;;;;;;;4.13;1.80;;;23.40;49.80;;;;;;11004005;26;20254;-68
2024/04/14 14:39:17;;;;;;;10.02;6.97;;;23.20;48.40;;;;;;11007720;26;20859;-67
2024/04/14 14:44:25;;;;;;;4.07;1.88;;;22.90;48.50;;;;;;11005782;26;21628;-66
2024/04/14 14:49:31;;;;;;;4.25;2.10;;;23.00;48.50;;;;;;11005395;26;20336;-66
2024/04/14 14:54:36;;;;;;;6.25;2.00;;;23.40;48.90;;;;;;11006233;26;20847;-66
2024/04/14 14:59:44;;;;;;;5.10;2.10;;;23.70;47.70;;;;;;11004660;26;21039;-67
2024/04/14 15:04:50;;;;;;;7.07;1.90;;;23.80;47.00;;;;;;11001701;26;20872;-67
2024/04/14 15:09:58;;;;;;;5.30;1.90;;;23.40;46.60;;;;;;11004200;26;20334;-68
2024/04/14 15:15:08;;;;;;;3.78;1.95;;;23.30;47.00;;;;;;11004450;26;20242;-68
2024/04/14 15:20:13;;;;;;;4.95;2.20;;;23.00;47.00;;;;;;10997086;26;20230;-69
2024/04/14 15:25:22;;;;;;;5.75;1.95;;;23.30;47.90;;;;;;11002540;26;21152;-66
2024/04/14 15:30:32;;;;;;;6.20;2.47;;;23.20;46.40;;;;;;11007615;26;20830;-66
2024/04/14 15:35:37;;;;;;;4.70;1.92;;;23.40;47.10;;;;;;11004576;26;20242;-67
2024/04/14 15:40:43;;;;;;;6.47;2.80;;;23.30;46.50;;;;;;11002911;26;20230;-66
2024/04/14 15:45:51;;;;;;;13.75;9.05;;;22.60;45.60;;;;;;11006281;26;22192;-66
2024/04/14 15:51:03;;;;;;;5.55;2.03;;;22.40;46.30;;;;;;11007187;26;20237;-66
2024/04/14 15:56:23;;;;;;;3.97;1.98;;;22.40;46.30;;;;;;11002526;26;20343;-67
2024/04/14 16:01:31;;;;;;;5.20;2.15;;;22.00;45.60;;;;;;11000823;26;20857;-70
2024/04/14 16:06:37;;;;;;;6.95;2.10;;;21.50;46.20;;;;;;11002308;26;21476;-67
2024/04/14 16:11:42;;;;;;;5.70;1.80;;;21.30;47.20;;;;;;11007805;26;20238;-67
2024/04/14 16:16:50;;;;;;;5.05;1.50;;;21.00;46.50;;;;;;11011414;26;20241;-66
2024/04/14 16:21:56;;;;;;;5.20;1.60;;;20.60;46.70;;;;;;11011557;26;20233;-69
2024/04/14 16:27:02;;;;;;;5.55;1.65;;;20.30;46.40;;;;;;11017163;26;20303;-67
2024/04/14 16:32:10;;;;;;;5.57;1.95;;;20.00;47.00;;;;;;11014711;26;20242;-69
2024/04/14 16:37:15;;;;;;;2.83;1.58;;;19.80;47.10;;;;;;11012048;26;20316;-68
2024/04/14 16:42:21;;;;;;;4.13;1.70;;;19.70;47.20;;;;;;11009978;26;20234;-65
2024/04/14 16:47:29;;;;;;;3.60;1.40;;;19.50;46.90;;;;;;11009250;26;20250;-67
2024/04/14 16:52:35;;;;;;;4.38;1.40;;;19.30;46.90;;;;;;11011405;26;20333;-67
2024/04/14 16:57:40;;;;;;;5.75;1.50;;;19.20;47.00;;;;;;10950610;26;20246;-67
2024/04/14 17:02:48;;;;;;;6.85;1.73;;;19.10;47.40;;;;;;11009049;26;20234;-67
2024/04/14 17:07:54;;;;;;;3.88;1.30;;;18.90;47.30;;;;;;11007776;26;20234;-66
2024/04/14 17:12:59;;;;;;;4.55;1.10;;;18.90;47.50;;;;;;11017131;26;20301;-67
2024/04/14 17:18:08;;;;;;;6.45;1.50;;;18.80;47.30;;;;;;11014579;26;20254;-67
2024/04/14 17:23:14;;;;;;;4.47;1.38;;;18.60;47.30;;;;;;11015007;26;20238;-66
2024/04/14 17:28:19;;;;;;;6.00;1.98;;;18.50;47.60;;;;;;10953422;26;20242;-68
2024/04/14 17:33:27;;;;;;;4.78;1.60;;;18.50;47.80;;;;;;11011033;26;21127;-69
2024/04/14 17:38:33;;;;;;;5.38;1.63;;;18.40;47.70;;;;;;11013916;26;20832;-67
2024/04/14 17:43:38;;;;;;;3.65;1.35;;;18.40;47.70;;;;;;11011807;26;20238;-66
2024/04/14 17:48:46;;;;;;;5.82;1.30;;;18.30;47.80;;;;;;11013692;26;20233;-68
2024/04/14 17:53:52;;;;;;;4.47;1.40;;;18.20;47.70;;;;;;11012058;26;20311;-67
2024/04/14 17:58:58;;;;;;;4.97;1.55;;;18.10;47.80;;;;;;11011633;26;20230;-65
2024/04/14 18:04:06;;;;;;;5.32;1.20;;;18.10;47.80;;;;;;11012795;26;20230;-67
2024/04/14 18:09:11;;;;;;;4.75;1.40;;;18.00;47.80;;;;;;11011247;26;20328;-67
2024/04/14 18:14:17;;;;;;;4.38;1.73;;;17.90;48.10;;;;;;11009503;26;20257;-67
2024/04/14 18:19:25;;;;;;;2.97;1.20;;;17.80;47.90;;;;;;11006786;26;20230;-65
2024/04/14 18:24:30;;;;;;;2.95;1.42;;;17.70;47.90;;;;;;11006071;26;20320;-66
2024/04/14 18:29:36;;;;;;;5.45;1.40;;;17.60;48.00;;;;;;11010786;26;20238;-66
2024/04/14 18:34:44;;;;;;;5.10;1.70;;;17.60;48.10;;;;;;11007329;26;20320;-65
2024/04/14 18:39:49;;;;;;;6.68;1.55;;;17.50;48.00;;;;;;11011554;26;20234;-67
2024/04/14 18:44:55;;;;;;;4.10;1.63;;;17.50;48.20;;;;;;11010249;26;20241;-68
2024/04/14 18:50:03;;;;;;;4.47;1.55;;;17.40;48.70;;;;;;11089298;26;20308;-67
2024/04/14 18:55:08;;;;;;;3.83;1.60;;;17.30;48.10;;;;;;11131158;26;20320;-67
2024/04/14 19:00:15;;;;;;;7.63;1.50;;;17.20;48.20;;;;;;11124075;26;20238;-68
2024/04/14 19:05:23;;;;;;;4.65;1.42;;;17.20;48.20;;;;;;11084647;26;21028;-66
2024/04/14 19:10:29;;;;;;;6.20;1.63;;;17.10;48.20;;;;;;11077891;26;20238;-72
2024/04/14 19:15:34;;;;;;;7.97;1.73;;;17.10;48.20;;;;;;11066631;26;20242;-68
2024/04/14 19:20:42;;;;;;;7.97;1.90;;;17.00;48.20;;;;;;11061872;26;20402;-67
2024/04/14 19:25:48;;;;;;;5.78;1.60;;;17.00;48.30;;;;;;11064653;26;20238;-68
2024/04/14 19:30:53;;;;;;;5.47;1.92;;;16.90;48.30;;;;;;11120293;26;20317;-70
2024/04/14 19:36:01;;;;;;;4.68;1.48;;;16.90;48.30;;;;;;11114746;26;20235;-65
2024/04/14 19:41:07;;;;;;;4.35;1.60;;;16.90;48.40;;;;;;11084107;26;20234;-68
2024/04/14 19:46:16;;;;;;;5.28;1.52;;;16.80;48.50;;;;;;11078714;26;20242;-69
2024/04/14 19:51:24;;;;;;;3.65;1.60;;;16.80;48.60;;;;;;11063465;26;20238;-67
2024/04/14 19:56:29;;;;;;;3.05;1.10;;;16.70;48.60;;;;;;11093543;26;20324;-67
2024/04/14 20:01:34;;;;;;;6.88;2.55;;;16.70;48.60;;;;;;11120012;26;20237;-65
2024/04/14 20:06:43;;;;;;;6.35;2.20;;;16.60;49.00;;;;;;11115481;26;20354;-63
2024/04/14 20:11:48;;;;;;;6.13;1.77;;;16.60;49.60;;;;;;11123498;26;20230;-66
2024/04/14 20:16:54;;;;;;;4.07;1.50;;;16.60;49.20;;;;;;11133786;26;20238;-64
2024/04/14 20:22:02;;;;;;;5.90;1.40;;;16.60;49.20;;;;;;11133009;26;20576;-65
2024/04/14 20:27:07;;;;;;;4.60;1.52;;;16.50;49.20;;;;;;11135642;26;20230;-66
2024/04/14 20:32:13;;;;;;;5.35;1.52;;;16.50;49.30;;;;;;11139817;26;20225;-63
2024/04/14 20:37:21;;;;;;;5.75;1.50;;;16.40;49.20;;;;;;11138037;26;20237;-66
2024/04/14 20:42:26;;;;;;;6.15;2.22;;;16.40;49.40;;;;;;11135879;26;20238;-65
2024/04/14 20:47:31;;;;;;;6.53;1.77;;;16.40;49.40;;;;;;11141732;26;20360;-65
2024/04/14 20:52:40;;;;;;;4.20;1.73;;;16.40;49.40;;;;;;11137846;26;20226;-65
2024/04/14 20:57:45;;;;;;;5.93;1.90;;;16.30;49.30;;;;;;11151062;26;20237;-64
2024/04/14 21:02:50;;;;;;;3.33;1.70;;;16.30;49.60;;;;;;11146683;26;20230;-65
2024/04/14 21:07:58;;;;;;;6.07;2.10;;;16.20;49.70;;;;;;11145632;26;20334;-64
2024/04/14 21:13:04;;;;;;;4.88;1.70;;;16.20;50.00;;;;;;11148213;26;20302;-65
2024/04/14 21:18:09;;;;;;;4.10;1.40;;;16.20;50.20;;;;;;11147494;26;20345;-65
2024/04/14 21:23:17;;;;;;;3.65;1.67;;;16.10;50.10;;;;;;11145091;26;20317;-66
2024/04/14 21:28:23;;;;;;;3.53;1.33;;;16.00;50.40;;;;;;11145230;26;20241;-65
2024/04/14 21:33:28;;;;;;;3.70;1.80;;;16.00;51.00;;;;;;11145950;26;20227;-65
2024/04/14 21:38:36;;;;;;;6.13;1.95;;;15.80;50.50;;;;;;11143661;26;20242;-65
2024/04/14 21:43:42;;;;;;;6.32;2.00;;;15.80;51.10;;;;;;11147013;26;20651;-65
2024/04/14 21:48:47;;;;;;;5.13;1.80;;;15.80;50.80;;;;;;11146176;26;21996;-64
2024/04/14 21:53:55;;;;;;;4.95;1.58;;;15.70;51.00;;;;;;11146356;26;20229;-66
2024/04/14 21:59:01;;;;;;;7.65;2.03;;;15.70;51.60;;;;;;11144137;26;20229;-65
2024/04/14 22:04:07;;;;;;;6.57;2.13;;;15.70;51.10;;;;;;11143192;26;20969;-65
2024/04/14 22:09:26;;;;;;;5.32;2.03;;;15.70;52.10;;;;;;11139795;26;20225;-65
2024/04/14 22:14:31;;;;;;;5.70;1.77;;;15.60;52.80;;;;;;11138878;26;20230;-64
2024/04/14 22:19:37;;;;;;;6.15;1.55;;;15.60;52.50;;;;;;11136980;26;20727;-66
2024/04/14 22:24:45;;;;;;;4.72;1.80;;;15.50;53.00;;;;;;11136743;26;20329;-65
2024/04/14 22:29:50;;;;;;;5.70;1.88;;;15.40;53.00;;;;;;11140142;26;20299;-65
2024/04/14 22:34:56;;;;;;;6.78;2.33;;;15.40;53.70;;;;;;11141994;26;20230;-64
2024/04/14 22:40:04;;;;;;;7.47;2.80;;;15.40;53.60;;;;;;11145226;26;20290;-66
2024/04/14 22:45:10;;;;;;;8.75;2.92;;;15.30;54.40;;;;;;12259374;21;22309;-65
2024/04/14 22:50:16;;;;;;;7.35;2.80;;;15.30;54.90;;;;;;11049304;26;20233;-65
2024/04/14 22:55:24;;;;;;;5.72;2.85;;;15.20;55.60;;;;;;11056345;26;20238;-64
2024/04/14 23:00:29;;;;;;;7.03;2.50;;;15.10;55.60;;;;;;11053956;26;20302;-68
2024/04/14 23:05:34;;;;;;;5.55;2.35;;;15.00;56.00;;;;;;11048072;26;20353;-66
2024/04/14 23:10:43;;;;;;;6.57;2.70;;;15.00;56.30;;;;;;11051695;26;20648;-69
2024/04/14 23:15:49;;;;;;;7.10;2.35;;;14.90;57.00;;;;;;11051343;26;20410;-68
2024/04/14 23:20:54;;;;;;;6.22;2.30;;;14.80;57.20;;;;;;11052604;26;20300;-68
2024/04/14 23:26:02;;;;;;;6.78;2.13;;;14.80;57.20;;;;;;11050570;26;20234;-68
2024/04/14 23:31:08;;;;;;;6.00;2.42;;;14.80;57.90;;;;;;11048705;26;20234;-66
2024/04/14 23:36:13;;;;;;;5.70;2.90;;;14.80;58.00;;;;;;11052900;26;20242;-68
2024/04/14 23:41:21;;;;;;;5.03;2.30;;;14.70;58.40;;;;;;11050572;26;20353;-70
2024/04/14 23:46:27;;;;;;;4.43;2.20;;;14.60;59.30;;;;;;11047213;26;20242;-69
2024/04/14 23:51:32;;;;;;;5.65;2.55;;;14.50;58.20;;;;;;11051720;26;20233;-67
2024/04/14 23:56:40;;;;;;;6.13;2.75;;;14.40;59.10;;;;;;11052314;26;20238;-67
